createdAt,value
2019-05-22T00:31:19.038Z,24.47
2019-05-22T00:33:50.338Z,29.85
2019-05-22T00:36:21.074Z,25.77
2019-05-22T00:38:51.459Z,23.52
2019-05-22T00:56:04.598Z,22.73
2019-05-22T00:58:36.372Z,28.85
2019-05-22T01:01:16.735Z,22.17
2019-05-22T01:03:49.847Z,23.75
2019-05-22T01:06:21.781Z,23.98
2019-05-22T01:08:52.677Z,23.52
2019-05-22T01:11:25.655Z,20.48
2019-05-22T01:13:56.775Z,16.77
2019-05-22T01:16:27.055Z,21.33
2019-05-22T01:18:57.775Z,18.63
2019-05-22T01:21:30.371Z,20.72
2019-05-22T01:24:01.574Z,14.43
2019-05-22T01:31:48.767Z,18.42
2019-05-22T01:34:21.063Z,13.70
2019-05-22T01:36:55.773Z,18.05
2019-05-22T01:39:47.476Z,19.27
2019-05-22T01:42:42.581Z,18.77
2019-05-22T01:45:13.828Z,17.70
2019-05-22T01:50:21.798Z,16.60
2019-05-22T01:52:52.203Z,25.80
2019-05-22T01:55:23.701Z,18.48
2019-05-22T01:57:54.008Z,19.17
2019-05-22T02:00:24.659Z,18.00
2019-05-22T02:02:56.685Z,18.70
2019-05-22T02:05:28.533Z,18.20
2019-05-22T02:07:59.632Z,19.42
2019-05-22T02:10:37.014Z,18.10
2019-05-22T02:13:07.272Z,18.92
2019-05-22T02:15:39.930Z,20.10
2019-05-22T02:18:15.007Z,19.32
2019-05-22T02:20:45.416Z,20.85
2019-05-22T02:23:17.816Z,24.32
2019-05-22T02:25:50.441Z,23.07
2019-05-22T02:28:20.770Z,18.75
2019-05-22T02:30:51.852Z,21.67
2019-05-22T02:33:24.813Z,22.75
2019-05-22T02:35:55.607Z,18.32
2019-05-22T02:38:26.737Z,21.93
2019-05-22T02:40:58.508Z,20.62
2019-05-22T02:43:30.333Z,19.48
2019-05-22T02:46:01.704Z,24.23
2019-05-22T02:51:03.196Z,23.07
2019-05-22T02:53:33.905Z,20.68
2019-05-22T02:56:05.407Z,17.60
2019-05-22T02:58:35.624Z,17.82
2019-05-22T03:01:06.875Z,13.35
2019-05-22T03:03:38.786Z,19.60
2019-05-22T03:06:12.725Z,16.30
2019-05-22T03:08:59.570Z,19.10
2019-05-22T03:11:37.464Z,16.75
2019-05-22T03:14:09.699Z,14.60
2019-05-22T03:16:47.770Z,19.35
2019-05-22T03:19:22.944Z,19.10
2019-05-22T03:21:53.395Z,15.63
2019-05-22T03:24:24.488Z,18.20
2019-05-22T03:26:56.024Z,15.10
2019-05-22T03:29:32.631Z,13.15
2019-05-22T03:32:04.809Z,15.05
2019-05-22T03:34:36.471Z,15.58
2019-05-22T03:37:06.835Z,12.78
2019-05-22T03:39:37.035Z,12.98
2019-05-22T03:42:07.338Z,13.03
2019-05-22T03:44:39.132Z,14.23
2019-05-22T03:47:09.451Z,14.13
2019-05-22T03:49:40.608Z,12.40
2019-05-22T03:52:11.293Z,17.27
2019-05-22T03:54:43.197Z,17.17
2019-05-22T03:57:14.586Z,15.30
2019-05-22T04:00:07.877Z,15.30
2019-05-22T04:02:39.133Z,14.33
2019-05-22T04:05:10.562Z,12.95
2019-05-22T04:07:41.047Z,15.85
2019-05-22T04:10:13.876Z,12.03
2019-05-22T04:12:44.552Z,12.90
2019-05-22T04:15:33.819Z,14.58
2019-05-22T04:18:14.498Z,14.87
2019-05-22T04:20:45.233Z,12.73
2019-05-22T04:23:15.530Z,10.38
2019-05-22T04:25:46.137Z,11.53
2019-05-22T04:28:16.416Z,12.07
2019-05-22T04:30:46.750Z,9.65
2019-05-22T04:33:17.561Z,15.60
2019-05-22T04:35:49.478Z,11.93
2019-05-22T04:38:20.047Z,10.63
2019-05-22T04:40:51.377Z,12.95
2019-05-22T04:46:08.478Z,8.98
2019-05-22T04:48:38.757Z,10.55
2019-05-22T04:51:22.701Z,11.08
2019-05-22T04:53:53.441Z,13.00
2019-05-22T04:56:23.977Z,11.20
2019-05-22T04:58:54.932Z,12.73
2019-05-22T05:01:25.466Z,12.00
2019-05-22T05:03:55.697Z,13.15
2019-05-22T05:06:26.214Z,8.90
2019-05-22T05:08:56.535Z,8.25
2019-05-22T05:11:27.518Z,13.80
2019-05-22T05:13:57.826Z,12.65
2019-05-22T05:16:28.015Z,10.85
2019-05-22T05:18:58.396Z,11.08
2019-05-22T05:21:28.718Z,14.67
2019-05-22T05:23:59.008Z,9.98
2019-05-22T05:26:30.338Z,10.18
2019-05-22T05:31:30.800Z,12.47
2019-05-22T05:34:10.975Z,12.50
2019-05-22T05:36:42.631Z,7.80
2019-05-22T05:39:37.735Z,9.25
2019-05-22T05:42:08.095Z,8.38
2019-05-22T05:44:38.818Z,9.93
2019-05-22T05:47:09.205Z,9.30
2019-05-22T05:49:39.677Z,9.23
2019-05-22T05:52:09.931Z,10.58
2019-05-22T05:54:41.715Z,8.60
2019-05-22T05:57:31.857Z,7.50
2019-05-22T06:00:03.946Z,8.68
2019-05-22T06:02:34.715Z,5.87
2019-05-22T06:05:06.227Z,7.40
2019-05-22T06:07:36.601Z,9.20
2019-05-22T06:10:29.332Z,5.20
2019-05-22T06:13:00.515Z,4.62
2019-05-22T06:18:27.487Z,7.65
2019-05-22T06:21:03.869Z,8.00
2019-05-22T06:23:34.039Z,8.35
2019-05-22T06:26:04.743Z,7.80
2019-05-22T06:28:39.496Z,7.37
2019-05-22T06:31:13.428Z,7.05
2019-05-22T06:33:45.073Z,6.05
2019-05-22T06:36:17.287Z,7.27
2019-05-22T06:38:55.794Z,7.75
2019-05-22T06:41:38.690Z,7.15
2019-05-22T06:44:33.706Z,7.97
2019-05-22T06:47:09.085Z,6.95
2019-05-22T06:49:39.774Z,8.60
2019-05-22T06:52:09.957Z,6.80
2019-05-22T06:54:40.351Z,8.23
2019-05-22T06:57:18.553Z,6.33
2019-05-22T07:00:11.574Z,8.25
2019-05-22T07:02:24.761Z,7.28
2019-05-22T07:04:55.143Z,13.90
2019-05-22T07:07:27.166Z,7.80
2019-05-22T07:09:57.472Z,6.08
2019-05-22T07:12:29.172Z,6.45
2019-05-22T07:15:04.312Z,5.55
2019-05-22T07:17:35.092Z,6.97
2019-05-22T07:20:06.617Z,6.15
2019-05-22T07:22:37.135Z,5.67
2019-05-22T07:25:09.162Z,5.85
2019-05-22T07:27:40.010Z,4.53
2019-05-22T07:30:11.187Z,3.87
2019-05-22T07:32:41.463Z,5.85
2019-05-22T07:35:12.089Z,5.30
2019-05-22T07:37:55.568Z,6.83
2019-05-22T07:40:26.033Z,6.65
2019-05-22T07:42:56.757Z,4.47
2019-05-22T07:45:29.406Z,6.03
2019-05-22T07:48:00.697Z,3.98
2019-05-22T07:50:32.676Z,4.53
2019-05-22T07:53:02.903Z,5.47
2019-05-22T07:55:33.271Z,4.20
2019-05-22T07:58:14.703Z,5.80
2019-05-22T08:00:48.009Z,4.97
2019-05-22T08:03:19.195Z,4.15
2019-05-22T08:05:54.123Z,4.65
2019-05-22T08:08:24.908Z,6.45
2019-05-22T08:10:56.313Z,7.05
2019-05-22T08:13:27.060Z,4.92
2019-05-22T08:15:57.846Z,4.10
2019-05-22T08:18:28.083Z,8.58
2019-05-22T08:20:58.673Z,4.10
2019-05-22T08:23:29.664Z,7.58
2019-05-22T08:28:31.800Z,5.75
2019-05-22T08:31:02.693Z,4.37
2019-05-22T08:33:34.335Z,5.60
2019-05-22T08:36:04.986Z,5.62
2019-05-22T08:38:36.135Z,5.45
2019-05-22T08:41:08.614Z,4.22
2019-05-22T08:43:56.485Z,9.23
2019-05-22T08:46:11.616Z,7.15
2019-05-22T08:48:48.182Z,8.20
2019-05-22T08:51:15.799Z,8.98
2019-05-22T08:53:48.366Z,8.23
2019-05-22T08:56:18.850Z,7.53
2019-05-22T08:58:49.132Z,6.80
2019-05-22T09:01:19.478Z,5.30
2019-05-22T09:03:50.495Z,8.23
2019-05-22T09:06:20.780Z,8.75
2019-05-22T09:08:51.081Z,7.63
2019-05-22T09:11:21.415Z,9.03
2019-05-22T09:13:51.772Z,11.28
2019-05-22T09:16:22.343Z,6.87
2019-05-22T09:18:53.603Z,7.95
2019-05-22T09:21:24.089Z,11.70
2019-05-22T09:23:54.969Z,10.08
2019-05-22T09:26:25.174Z,9.28
2019-05-22T09:28:55.534Z,10.95
2019-05-22T09:31:25.790Z,9.55
2019-05-22T09:33:56.087Z,8.40
2019-05-22T09:36:26.633Z,9.28
2019-05-22T09:38:56.889Z,9.83
2019-05-22T09:41:27.236Z,7.77
2019-05-22T09:43:57.604Z,10.80
2019-05-22T09:46:27.900Z,9.13
2019-05-22T09:48:58.844Z,8.67
2019-05-22T09:51:29.422Z,8.70
2019-05-22T09:54:00.982Z,7.75
2019-05-22T09:56:31.255Z,9.53
2019-05-22T09:59:01.729Z,7.57
2019-05-22T10:01:32.229Z,7.70
2019-05-22T10:04:03.348Z,9.60
2019-05-22T10:09:02.956Z,9.43
2019-05-22T10:11:33.677Z,7.30
2019-05-22T10:14:05.346Z,10.13
2019-05-22T10:16:35.640Z,7.30
2019-05-22T10:19:06.113Z,8.00
2019-05-22T10:21:36.485Z,8.00
2019-05-22T10:24:06.684Z,7.58
2019-05-22T10:26:37.375Z,7.40
2019-05-22T10:29:07.575Z,9.85
2019-05-22T10:31:37.871Z,9.47
2019-05-22T10:34:08.176Z,8.33
2019-05-22T10:36:38.647Z,9.87
2019-05-22T10:39:09.207Z,10.43
2019-05-22T10:41:39.983Z,11.55
2019-05-22T10:44:10.195Z,10.72
2019-05-22T10:46:40.809Z,9.45
2019-05-22T10:49:11.003Z,9.08
2019-05-22T10:51:41.203Z,11.70
2019-05-22T10:54:11.487Z,10.27
2019-05-22T10:56:41.665Z,10.93
2019-05-22T10:59:11.876Z,8.98
2019-05-22T11:01:42.171Z,8.78
2019-05-22T11:04:12.913Z,8.10
2019-05-22T11:06:43.252Z,10.55
2019-05-22T11:09:13.528Z,9.75
2019-05-22T11:11:43.711Z,10.47
2019-05-22T11:14:14.400Z,8.25
2019-05-22T11:16:45.129Z,9.03
2019-05-22T11:19:15.756Z,10.08
2019-05-22T11:21:46.400Z,8.80
2019-05-22T11:24:16.605Z,12.73
2019-05-22T11:26:47.530Z,8.97
2019-05-22T11:29:18.003Z,11.65
2019-05-22T11:31:48.226Z,9.05
2019-05-22T11:34:31.783Z,9.73
2019-05-22T11:37:02.138Z,10.30
2019-05-22T11:39:39.541Z,9.63
2019-05-22T11:42:05.004Z,10.93
2019-05-22T11:44:35.241Z,10.82
2019-05-22T11:47:06.876Z,11.12
2019-05-22T11:49:39.237Z,11.10
2019-05-22T11:52:11.099Z,9.75
2019-05-22T11:54:41.460Z,10.28
2019-05-22T11:57:12.483Z,11.35
2019-05-22T11:59:43.973Z,9.63
2019-05-22T12:02:14.451Z,11.00
2019-05-22T12:04:48.499Z,10.60
2019-05-22T12:07:16.668Z,7.92
2019-05-22T12:09:47.570Z,9.75
2019-05-22T12:12:19.088Z,12.63
2019-05-22T12:14:49.880Z,10.28
2019-05-22T12:17:36.674Z,8.55
2019-05-22T12:19:52.451Z,9.23
2019-05-22T12:22:22.669Z,7.93
2019-05-22T12:25:00.634Z,9.73
2019-05-22T12:27:31.766Z,14.70
2019-05-22T12:30:02.825Z,10.30
2019-05-22T12:32:34.081Z,11.68
2019-05-22T12:35:06.110Z,9.18
2019-05-22T12:37:36.560Z,10.80
2019-05-22T12:40:08.223Z,12.75
2019-05-22T12:42:38.688Z,8.70
2019-05-22T12:45:09.636Z,9.03
2019-05-22T12:47:40.836Z,9.60
2019-05-22T12:50:16.926Z,7.60
2019-05-22T12:52:51.069Z,10.30
2019-05-22T12:55:21.416Z,8.78
2019-05-22T12:57:51.888Z,8.25
2019-05-22T13:00:23.790Z,8.50
2019-05-22T13:02:55.127Z,8.88
2019-05-22T13:05:25.332Z,12.00
2019-05-22T13:07:57.112Z,11.30
2019-05-22T13:10:27.941Z,11.08
2019-05-22T13:12:58.172Z,9.03
2019-05-22T13:15:28.520Z,8.13
2019-05-22T13:17:59.779Z,9.10
2019-05-22T13:20:42.077Z,12.35
2019-05-22T13:23:03.359Z,9.00
2019-05-22T13:25:35.980Z,8.78
2019-05-22T13:28:07.198Z,8.00
2019-05-22T13:30:39.053Z,9.28
2019-05-22T13:33:29.083Z,8.28
2019-05-22T13:35:59.595Z,10.27
2019-05-22T13:38:29.788Z,9.03
2019-05-22T13:41:00.082Z,8.70
2019-05-22T13:43:31.108Z,14.47
2019-05-22T13:48:31.149Z,11.22
2019-05-22T13:51:01.412Z,11.03
2019-05-22T13:53:32.580Z,8.75
2019-05-22T13:58:32.627Z,10.55
2019-05-22T14:01:03.742Z,11.55
2019-05-22T14:06:04.739Z,9.28
2019-05-22T14:08:34.927Z,10.80
2019-05-22T14:11:06.187Z,9.63
2019-05-22T14:13:37.343Z,9.83
2019-05-22T14:18:38.116Z,8.78
2019-05-22T14:21:08.319Z,8.75
2019-05-22T14:23:39.366Z,11.70
2019-05-22T14:26:09.583Z,8.53
2019-05-22T14:28:41.668Z,9.68
2019-05-22T14:31:11.939Z,7.90
2019-05-22T14:36:35.934Z,7.45
2019-05-22T14:39:08.427Z,8.25
2019-05-22T14:41:38.633Z,11.20
2019-05-22T14:44:08.908Z,11.30
2019-05-22T14:46:39.246Z,12.50
2019-05-22T14:49:09.450Z,11.90
2019-05-22T14:51:40.111Z,10.80
2019-05-22T14:54:10.776Z,14.65
2019-05-22T14:56:41.643Z,15.00
2019-05-22T14:59:11.930Z,13.62
2019-05-22T15:01:43.556Z,14.07
2019-05-22T15:04:32.856Z,15.37
2019-05-22T15:07:03.527Z,17.73
2019-05-22T15:09:33.740Z,16.12
2019-05-22T15:12:06.387Z,14.13
2019-05-22T15:14:36.653Z,15.23
2019-05-22T15:17:28.625Z,16.42
2019-05-22T15:20:08.503Z,18.52
2019-05-22T15:22:38.785Z,14.73
2019-05-22T15:25:14.572Z,14.68
2019-05-22T15:27:45.251Z,14.83
2019-05-22T15:30:15.918Z,14.13
2019-05-22T15:32:46.120Z,13.90
2019-05-22T15:35:17.157Z,15.80
2019-05-22T15:37:48.343Z,7.92
2019-05-22T15:40:19.242Z,14.00
2019-05-22T15:42:49.534Z,11.95
2019-05-22T15:45:25.444Z,13.07
2019-05-22T15:48:02.420Z,12.70
2019-05-22T15:50:53.620Z,13.83
2019-05-22T15:53:23.877Z,10.40
2019-05-22T15:55:54.427Z,11.20
2019-05-22T15:58:25.978Z,14.07
2019-05-22T16:00:56.187Z,11.85
2019-05-22T16:03:28.118Z,15.63
2019-05-22T16:05:58.764Z,8.60
2019-05-22T16:08:30.462Z,9.70
2019-05-22T16:11:01.752Z,10.00
2019-05-22T16:16:04.245Z,9.15
2019-05-22T16:18:35.553Z,9.93
2019-05-22T16:23:35.992Z,12.75
2019-05-22T16:26:09.480Z,14.10
2019-05-22T16:28:40.835Z,12.40
2019-05-22T16:31:12.500Z,14.60
2019-05-22T16:33:43.918Z,13.22
2019-05-22T16:38:45.332Z,8.03
2019-05-22T16:41:16.503Z,9.10
2019-05-22T16:43:49.969Z,7.62
2019-05-22T16:46:37.221Z,9.23
2019-05-22T16:49:12.742Z,7.37
2019-05-22T16:51:43.333Z,9.18
2019-05-22T16:54:14.085Z,9.70
2019-05-22T16:56:44.433Z,8.75
2019-05-22T16:59:36.648Z,10.85
2019-05-22T17:02:11.966Z,6.92
2019-05-22T17:05:02.334Z,8.83
2019-05-22T17:07:33.980Z,8.40
2019-05-22T17:10:07.325Z,11.75
2019-05-22T17:12:42.096Z,9.15
2019-05-22T17:15:14.368Z,7.95
2019-05-22T17:18:02.930Z,7.20
2019-05-22T17:20:34.947Z,8.15
2019-05-22T17:26:19.769Z,13.10
2019-05-22T17:29:25.197Z,10.70
2019-05-22T17:31:55.603Z,14.33
2019-05-22T17:34:45.646Z,12.28
2019-05-22T17:37:33.560Z,18.50
2019-05-22T17:40:27.094Z,18.32
2019-05-22T17:43:04.099Z,26.35
2019-05-22T17:45:44.979Z,25.43
2019-05-22T17:48:22.621Z,24.60
2019-05-22T17:50:57.830Z,22.93
2019-05-22T17:53:33.327Z,23.98
2019-05-22T17:56:13.464Z,19.02
2019-05-22T17:58:47.316Z,16.75
2019-05-22T18:01:42.208Z,18.02
2019-05-22T18:04:12.469Z,14.73
2019-05-22T18:06:45.483Z,11.57
2019-05-22T18:09:40.251Z,9.65
2019-05-22T18:12:22.001Z,9.90
2019-05-22T18:15:04.584Z,10.82
2019-05-22T18:17:39.794Z,8.38
2019-05-22T18:20:11.612Z,9.43
2019-05-22T18:22:42.531Z,10.63
2019-05-22T18:25:13.193Z,9.83
2019-05-22T18:27:44.379Z,8.78
2019-05-22T18:30:16.288Z,8.30
2019-05-22T18:32:46.469Z,11.10
2019-05-22T18:35:16.681Z,9.15
2019-05-22T18:38:22.736Z,9.33
2019-05-22T18:40:59.589Z,8.93
2019-05-22T18:43:33.127Z,10.20
2019-05-22T18:46:03.821Z,8.73
2019-05-22T18:48:48.118Z,14.38
2019-05-22T18:51:19.407Z,13.13
2019-05-22T18:53:51.115Z,11.30
2019-05-22T18:56:21.330Z,11.50
2019-05-22T18:59:03.339Z,11.35
2019-05-22T19:01:43.171Z,14.53
2019-05-22T19:04:35.585Z,15.35
2019-05-22T19:07:05.942Z,11.60
2019-05-22T19:12:16.945Z,12.60
2019-05-22T19:14:55.825Z,17.55
2019-05-22T19:17:35.607Z,22.80
2019-05-22T19:23:06.751Z,20.97
2019-05-22T19:25:37.599Z,16.40
2019-05-22T19:28:09.876Z,19.57
2019-05-22T19:30:52.400Z,20.85
2019-05-22T19:33:25.092Z,29.67
2019-05-22T19:36:29.301Z,27.67
2019-05-22T19:39:11.407Z,19.27
2019-05-22T19:42:15.192Z,25.27
2019-05-22T19:44:58.678Z,27.48
2019-05-22T19:47:35.016Z,27.35
2019-05-22T19:50:32.608Z,19.97
2019-05-22T19:53:19.280Z,15.98
2019-05-22T19:56:16.829Z,18.92
2019-05-22T19:58:47.162Z,18.17
2019-05-22T20:01:32.825Z,14.47
2019-05-22T20:04:04.348Z,21.27
2019-05-22T20:06:38.446Z,19.45
2019-05-22T20:09:11.830Z,20.85
2019-05-22T20:11:42.685Z,23.22
2019-05-22T20:14:19.010Z,17.67
2019-05-22T20:16:49.578Z,23.62
2019-05-22T20:19:20.324Z,18.62
2019-05-22T20:21:53.948Z,21.40
2019-05-22T20:24:25.393Z,18.25
2019-05-22T20:27:10.041Z,22.37
2019-05-22T20:29:36.668Z,19.17
2019-05-22T20:32:08.592Z,21.65
2019-05-22T20:34:39.124Z,18.67
2019-05-22T20:37:30.456Z,21.05
2019-05-22T20:40:09.926Z,17.67
2019-05-22T20:42:42.873Z,19.87
2019-05-22T20:45:20.535Z,18.57
2019-05-22T20:48:17.633Z,22.40
2019-05-22T20:50:58.675Z,18.42
2019-05-22T20:57:21.351Z,19.32
2019-05-22T21:02:21.888Z,18.40
2019-05-22T21:04:53.864Z,15.45
2019-05-22T21:07:33.191Z,16.80
2019-05-22T21:10:08.348Z,19.23
2019-05-22T21:12:45.883Z,18.70
2019-05-22T21:15:23.670Z,16.57
2019-05-22T21:18:07.768Z,17.73
2019-05-22T21:20:54.906Z,17.32
2019-05-22T21:23:28.617Z,18.40
2019-05-22T21:26:00.513Z,16.97
2019-05-22T21:28:49.999Z,16.95
2019-05-22T21:31:24.745Z,18.42
2019-05-22T21:33:55.287Z,16.30
2019-05-22T21:36:27.296Z,13.60
2019-05-22T21:38:57.492Z,16.00
2019-05-22T21:41:28.355Z,21.57
2019-05-22T21:43:58.738Z,21.80
2019-05-22T21:46:29.501Z,19.07
2019-05-22T21:49:09.628Z,17.00
2019-05-22T21:51:41.516Z,15.35
2019-05-22T21:54:11.992Z,22.50
2019-05-22T21:56:42.873Z,18.03
2019-05-22T21:59:25.497Z,14.87
2019-05-22T22:02:08.750Z,18.40
2019-05-22T22:04:48.639Z,14.43
2019-05-22T22:07:24.738Z,17.00
2019-05-22T22:10:03.391Z,15.13
2019-05-22T22:12:36.431Z,16.57
2019-05-22T22:15:08.644Z,19.37
2019-05-22T22:18:19.990Z,18.32
2019-05-22T22:21:01.868Z,20.77
2019-05-22T22:23:48.122Z,21.07
2019-05-22T22:26:25.937Z,16.80
2019-05-22T22:28:55.741Z,19.80
2019-05-22T22:31:41.131Z,19.57
2019-05-22T22:34:31.723Z,20.35
2019-05-22T22:37:11.029Z,23.70
2019-05-22T22:39:43.957Z,17.37
2019-05-22T22:42:22.007Z,22.60
2019-05-22T22:44:55.271Z,18.05
2019-05-22T22:47:30.262Z,20.10
2019-05-22T22:50:19.771Z,16.82
2019-05-22T22:52:48.623Z,18.62
2019-05-22T22:55:19.018Z,17.32
2019-05-22T22:58:25.905Z,20.32
2019-05-22T23:00:57.356Z,19.42
2019-05-22T23:03:27.860Z,17.32
2019-05-22T23:05:58.487Z,21.30
2019-05-22T23:08:31.835Z,17.77
2019-05-22T23:11:03.296Z,20.12
2019-05-22T23:13:33.753Z,21.35
2019-05-22T23:16:04.535Z,20.47
2019-05-22T23:18:45.430Z,22.22
2019-05-22T23:21:16.410Z,21.50
2019-05-22T23:23:46.953Z,23.22
2019-05-22T23:26:17.186Z,21.80
2019-05-22T23:28:50.487Z,22.93
2019-05-22T23:31:21.249Z,22.90
2019-05-22T23:33:51.960Z,22.65
2019-05-22T23:36:22.954Z,25.32
2019-05-22T23:38:54.340Z,27.60
2019-05-22T23:43:54.487Z,33.50
2019-05-22T23:46:26.317Z,30.32
2019-05-22T23:48:59.618Z,28.57
2019-05-22T23:51:30.715Z,29.90
2019-05-22T23:54:01.559Z,27.32
2019-05-22T23:56:34.218Z,28.32
2019-05-22T23:59:04.794Z,28.65
